Brownsville South Padre Island International Airport
KBRO : now visible

Airfield :











YOU CAN JOIN US ON...

 
LOGIN :

Register | Disclaimer

   EN    FR    IT 

 









Legend :    VFR   Marginal VFR   IFR   Intensive IFR   Very Intensive IFR
Visi :
Ceiling :
>= 8 km
>= 3000ft
5 to 8 km
1000 to 3000 ft
1500m to 5 km
500 to 1000 ft
800 to 1500m
200 to 500 ft
< 800m
< 200 ft
Symbols :   Thunderstorms  Fog  Heavy snow  Heavy precipitations  Wind > 20 kt






- Airport Elevation : 22 ft
- IATA code : BRO


KBRO - Brownsville South Padre Island International

CURRENT METAR :
  • 110253Z 12008KT 10SM OVC013 28/24 A2986 RMK AO2 SLP109 T02780244 53027

EXPIRED METARs :
  • 110237Z 13009KT 10SM BKN013 28/24 A2985 RMK AO2 T02780244
  • 110224Z 12009G16KT 10SM SCT011 BKN016 28/24 A2984 RMK AO2 PRESRR T02780244
  • 110153Z 15015G22KT 10SM FEW011 28/24 A2979 RMK AO2 SLP085 T02780244
  • 110141Z 15014G24KT 10SM SCT013 28/24 A2978 RMK AO2 T02780244
  • 110120Z 15010KT 10SM SCT013 BKN019 28/24 A2980 RMK AO2 T02780244
  • 110053Z 15015G26KT 10SM CLR 28/24 A2976 RMK AO2 PK WND 15031/0025 SLP075 T02780244
  • 110011Z 15019G26KT 10SM FEW015 SCT023 29/24 A2977 RMK AO2 PK WND 15026/0005 T02890239

TAF KBRO
Valid from the 11 at 00:00 until the 12 at 00:00 UTC


110019Z 1100/1124 15019G26KT P6SM FEW015 SCT023
TEMPO 1100/1103 BKN015
FM110300 15010G20KT P6SM OVC015
FM111500 15012KT P6SM OVC022
FM111700 15013KT P6SM BKN040
KZHU FIR / North America



MET'MAP, your aeronautical weather chart ! - Copyright ORBIFLY December 2007 - Disclaimer

ORBIFLY MET'MAP TEAM :

Programming & Development : Alexandra Zaïnal
Concept & original design : Baudouin d'Aumeries
Assistance for programming : Marc-Olivier Méhu
Technical & hardware support : Manuel Goepfert

Contact : metmap@orbifly.com




SOURCES & CREDITS :

   NOAA       Earth
Advisory